createdAt,value
2019-02-12T00:03:10.303Z,2.20
2019-02-12T00:07:56.281Z,2.20
2019-02-12T00:12:42.287Z,2.30
2019-02-12T00:17:28.119Z,2.20
2019-02-12T00:22:14.029Z,2.30
2019-02-12T00:26:59.889Z,2.30
2019-02-12T00:31:45.755Z,2.30
2019-02-12T00:36:31.681Z,2.40
2019-02-12T00:41:17.831Z,2.50
2019-02-12T00:46:03.706Z,2.40
2019-02-12T00:50:49.523Z,2.30
2019-02-12T00:55:35.603Z,2.40
2019-02-12T01:00:21.427Z,2.50
2019-02-12T01:05:07.438Z,2.40
2019-02-12T01:09:53.436Z,2.40
2019-02-12T01:14:39.314Z,2.50
2019-02-12T01:19:25.147Z,2.40
2019-02-12T01:24:10.934Z,2.50
2019-02-12T01:28:56.664Z,2.50
2019-02-12T01:33:43.154Z,2.40
2019-02-12T01:38:28.940Z,2.30
2019-02-12T01:43:14.691Z,2.30
2019-02-12T01:48:00.503Z,2.30
2019-02-12T01:52:46.464Z,2.40
2019-02-12T01:57:32.335Z,2.30
2019-02-12T02:02:18.183Z,2.30
2019-02-12T02:07:03.853Z,2.30
2019-02-12T02:11:49.599Z,2.40
2019-02-12T02:16:35.311Z,2.50
2019-02-12T02:21:21.245Z,2.40
2019-02-12T02:26:07.020Z,2.50
2019-02-12T02:30:52.829Z,2.40
2019-02-12T02:35:38.638Z,2.30
2019-02-12T02:40:24.409Z,2.30
2019-02-12T02:45:10.931Z,2.20
2019-02-12T02:49:56.704Z,2.20
2019-02-12T02:54:42.542Z,2.20
2019-02-12T02:59:28.492Z,2.10
2019-02-12T03:04:14.330Z,2.00
2019-02-12T03:09:00.154Z,2.00
2019-02-12T03:13:45.855Z,1.90
2019-02-12T03:18:31.715Z,1.90
2019-02-12T03:23:17.423Z,1.80
2019-02-12T03:28:03.186Z,1.80
2019-02-12T03:32:48.920Z,1.90
2019-02-12T03:37:34.652Z,2.00
2019-02-12T03:42:20.373Z,1.90
2019-02-12T03:47:06.152Z,1.90
2019-02-12T03:51:51.823Z,1.90
2019-02-12T03:56:37.662Z,2.00
2019-02-12T04:01:23.675Z,1.90
2019-02-12T04:06:09.443Z,1.80
2019-02-12T04:10:55.187Z,1.80
2019-02-12T04:15:40.936Z,1.80
2019-02-12T04:20:26.625Z,1.80
2019-02-12T04:25:12.365Z,1.80
2019-02-12T04:29:58.091Z,1.80
2019-02-12T04:34:43.854Z,1.90
2019-02-12T04:39:29.539Z,1.90
2019-02-12T04:44:15.346Z,1.90
2019-02-12T04:49:01.064Z,1.90
2019-02-12T04:53:46.909Z,1.90
2019-02-12T04:58:32.631Z,2.00
2019-02-12T05:03:18.342Z,1.90
2019-02-12T05:08:04.093Z,1.90
2019-02-12T05:12:50.003Z,1.90
2019-02-12T05:17:35.731Z,1.90
2019-02-12T05:22:21.526Z,1.90
2019-02-12T05:27:07.288Z,2.00
2019-02-12T05:31:53.062Z,2.00
2019-02-12T05:36:38.770Z,1.90
2019-02-12T05:41:24.522Z,2.00
2019-02-12T05:46:10.239Z,2.20
2019-02-12T05:50:56.029Z,2.30
2019-02-12T05:55:41.792Z,2.20
2019-02-12T06:00:29.784Z,2.10
2019-02-12T06:05:29.438Z,2.10
2019-02-12T06:10:15.339Z,2.10
2019-02-12T06:15:01.341Z,2.00
2019-02-12T06:19:47.043Z,2.00
2019-02-12T06:24:32.821Z,2.10
2019-02-12T06:29:18.632Z,2.20
2019-02-12T06:34:04.513Z,2.20
2019-02-12T06:38:50.347Z,2.10
2019-02-12T06:43:36.119Z,2.10
2019-02-12T06:48:21.881Z,2.10
2019-02-12T06:53:12.530Z,2.10
2019-02-12T06:57:56.914Z,2.10
2019-02-12T07:03:08.231Z,2.10
2019-02-12T07:08:32.651Z,2.20
2019-02-12T07:13:40.000Z,2.20
2019-02-12T07:19:02.290Z,2.30
2019-02-12T07:24:30.570Z,2.40
2019-02-12T07:29:49.279Z,2.60
2019-02-12T07:35:28.196Z,2.70
2019-02-12T07:40:24.904Z,2.90
2019-02-12T07:45:32.834Z,2.80
2019-02-12T07:51:16.708Z,2.80
2019-02-12T07:56:26.671Z,3.00
2019-02-12T08:01:40.099Z,3.10
2019-02-12T08:07:12.860Z,3.20
2019-02-12T08:12:39.665Z,3.30
2019-02-12T08:18:11.367Z,3.40
2019-02-12T08:23:20.492Z,3.50
2019-02-12T08:28:20.421Z,3.60
2019-02-12T08:33:41.813Z,3.50
2019-02-12T08:39:01.629Z,3.40
2019-02-12T08:44:26.067Z,3.50
2019-02-12T08:49:38.381Z,3.60
2019-02-12T08:55:00.486Z,3.60
2019-02-12T09:00:26.952Z,3.80
2019-02-12T09:05:45.086Z,3.90
2019-02-12T09:11:20.824Z,4.70
2019-02-12T09:16:57.820Z,4.80
2019-02-12T09:22:54.770Z,4.90
2019-02-12T09:28:23.553Z,5.50
2019-02-12T09:33:34.786Z,6.50
2019-02-12T09:38:45.124Z,6.80
2019-02-12T09:44:17.771Z,7.10
2019-02-12T09:49:42.510Z,7.70
2019-02-12T09:55:03.133Z,8.90
2019-02-12T10:00:19.363Z,9.50
2019-02-12T10:05:52.514Z,9.30
2019-02-12T10:11:18.428Z,8.90
2019-02-12T10:16:51.139Z,8.40
2019-02-12T10:22:09.368Z,8.00
2019-02-12T10:27:07.659Z,7.60
2019-02-12T10:31:51.736Z,7.40
2019-02-12T10:36:37.754Z,7.40
2019-02-12T10:41:23.593Z,7.30
2019-02-12T10:46:09.603Z,7.60
2019-02-12T10:50:55.552Z,7.80
2019-02-12T10:55:41.650Z,7.90
2019-02-12T11:00:27.517Z,7.80
2019-02-12T11:05:13.579Z,8.00
2019-02-12T11:10:00.343Z,8.10
2019-02-12T11:14:46.229Z,8.10
2019-02-12T11:19:32.583Z,7.80
2019-02-12T11:24:18.794Z,7.90
2019-02-12T11:29:04.757Z,8.20
2019-02-12T11:33:50.502Z,8.20
2019-02-12T11:38:36.386Z,8.50
2019-02-12T11:43:22.165Z,8.90
2019-02-12T11:48:07.956Z,10.50
2019-02-12T11:52:53.680Z,12.10
2019-02-12T11:57:39.481Z,12.50
2019-02-12T12:02:28.818Z,12.40
2019-02-12T12:07:14.657Z,12.00
2019-02-12T12:12:00.417Z,11.80
2019-02-12T12:16:46.225Z,11.10
2019-02-12T12:21:32.164Z,11.10
2019-02-12T12:26:18.026Z,10.80
2019-02-12T12:31:03.788Z,10.90
2019-02-12T12:35:49.588Z,10.40
2019-02-12T12:40:35.342Z,10.30
2019-02-12T12:45:21.279Z,9.20
2019-02-12T12:50:08.447Z,8.40
2019-02-12T12:54:59.702Z,8.30
2019-02-12T12:59:41.668Z,8.60
2019-02-12T13:04:27.659Z,8.70
2019-02-12T13:09:13.516Z,8.60
2019-02-12T13:13:59.356Z,8.80
2019-02-12T13:18:45.072Z,9.30
2019-02-12T13:23:30.973Z,9.30
2019-02-12T13:28:16.777Z,9.60
2019-02-12T13:33:02.525Z,10.60
2019-02-12T13:37:48.266Z,10.80
2019-02-12T13:42:34.038Z,10.80
2019-02-12T13:47:19.788Z,11.10
2019-02-12T13:52:05.750Z,10.50
2019-02-12T13:56:51.597Z,10.00
2019-02-12T14:01:37.477Z,10.00
2019-02-12T14:06:23.562Z,9.60
2019-02-12T14:11:09.469Z,10.60
2019-02-12T14:15:55.186Z,11.60
2019-02-12T14:20:41.084Z,12.10
2019-02-12T14:25:26.860Z,14.40
2019-02-12T14:30:14.271Z,17.60
2019-02-12T14:35:00.315Z,18.40
2019-02-12T14:39:46.066Z,16.60
2019-02-12T14:44:31.959Z,14.40
2019-02-12T14:49:17.747Z,13.60
2019-02-12T14:54:03.494Z,12.60
2019-02-12T14:58:49.372Z,11.50
2019-02-12T15:03:35.447Z,11.10
2019-02-12T15:08:21.247Z,11.80
2019-02-12T15:13:07.055Z,11.10
2019-02-12T15:17:53.165Z,10.30
2019-02-12T15:22:38.930Z,10.50
2019-02-12T15:27:24.821Z,10.10
2019-02-12T15:32:10.866Z,10.10
2019-02-12T15:36:56.757Z,9.70
2019-02-12T15:41:42.721Z,8.70
2019-02-12T15:46:28.480Z,8.80
2019-02-12T15:51:14.251Z,8.70
2019-02-12T15:56:00.087Z,8.60
2019-02-12T16:00:46.170Z,8.20
2019-02-12T16:05:32.817Z,7.90
2019-02-12T16:10:19.827Z,7.40
2019-02-12T16:15:06.367Z,7.20
2019-02-12T16:19:52.360Z,7.00
2019-02-12T16:24:38.102Z,6.90
2019-02-12T16:29:23.845Z,6.60
2019-02-12T16:34:11.073Z,6.40
2019-02-12T16:38:56.990Z,5.90
2019-02-12T16:43:42.742Z,5.40
2019-02-12T16:48:29.595Z,4.80
2019-02-12T16:53:15.329Z,4.30
2019-02-12T16:58:01.176Z,4.00
2019-02-12T17:02:47.109Z,3.80
2019-02-12T17:07:33.079Z,3.60
2019-02-12T17:12:18.864Z,3.50
2019-02-12T17:17:04.747Z,3.30
2019-02-12T17:21:50.463Z,3.20
2019-02-12T17:26:36.313Z,3.10
2019-02-12T17:31:22.116Z,2.90
2019-02-12T17:36:08.101Z,2.70
2019-02-12T17:40:53.961Z,2.50
2019-02-12T17:45:39.832Z,2.50
2019-02-12T17:50:25.870Z,2.40
2019-02-12T17:55:11.979Z,2.30
2019-02-12T17:59:58.057Z,2.20
2019-02-12T18:04:43.974Z,2.00
2019-02-12T18:09:29.726Z,2.20
2019-02-12T18:14:15.523Z,2.30
2019-02-12T18:19:01.344Z,2.40
2019-02-12T18:23:47.290Z,2.10
2019-02-12T18:28:33.478Z,2.10
2019-02-12T18:33:19.597Z,1.90
2019-02-12T18:38:05.654Z,1.70
2019-02-12T18:42:51.406Z,1.50
2019-02-12T18:47:37.369Z,1.30
2019-02-12T18:52:23.494Z,1.10
2019-02-12T18:57:09.399Z,1.00
2019-02-12T19:01:55.199Z,1.00
2019-02-12T19:06:41.210Z,1.10
2019-02-12T19:11:27.122Z,1.20
2019-02-12T19:16:13.089Z,1.20
2019-02-12T19:20:59.001Z,1.10
2019-02-12T19:25:45.026Z,0.90
2019-02-12T19:30:31.229Z,0.60
2019-02-12T19:35:17.201Z,0.50
2019-02-12T19:40:03.030Z,0.80
2019-02-12T19:44:49.021Z,0.90
2019-02-12T19:49:35.129Z,0.60
2019-02-12T19:54:21.695Z,0.40
2019-02-12T19:59:07.759Z,0.60
2019-02-12T20:03:53.837Z,0.50
2019-02-12T20:08:40.532Z,0.20
2019-02-12T20:13:26.542Z,0.30
2019-02-12T20:18:12.596Z,0.30
2019-02-12T20:22:58.823Z,0.30
2019-02-12T20:27:45.010Z,0.00
2019-02-12T20:32:31.302Z,-0.30
2019-02-12T20:37:17.397Z,-0.30
2019-02-12T20:42:03.421Z,-0.30
2019-02-12T20:46:49.787Z,-0.30
2019-02-12T20:51:36.461Z,-0.50
2019-02-12T20:56:22.425Z,-0.70
2019-02-12T21:01:08.760Z,-0.60
2019-02-12T21:05:54.749Z,-0.70
2019-02-12T21:10:40.668Z,-0.80
2019-02-12T21:15:26.570Z,-0.80
2019-02-12T21:20:12.655Z,-0.60
2019-02-12T21:24:58.927Z,-0.10
2019-02-12T21:29:44.961Z,-0.30
2019-02-12T21:34:31.593Z,-0.50
2019-02-12T21:39:20.777Z,-0.50
2019-02-12T21:44:09.933Z,-0.40
2019-02-12T21:48:56.033Z,-0.40
2019-02-12T21:53:41.912Z,-0.40
2019-02-12T21:58:27.909Z,-0.50
2019-02-12T22:03:13.834Z,-0.70
2019-02-12T22:07:59.679Z,-0.80
2019-02-12T22:12:45.701Z,-0.70
2019-02-12T22:17:31.668Z,-0.90
2019-02-12T22:22:17.561Z,-1.00
2019-02-12T22:27:03.634Z,-1.10
2019-02-12T22:31:49.513Z,-1.40
2019-02-12T22:36:35.406Z,-1.50
2019-02-12T22:41:21.420Z,-1.50
2019-02-12T22:46:08.433Z,-1.30
2019-02-12T22:50:54.367Z,-1.50
2019-02-12T22:55:40.309Z,-1.60
2019-02-12T23:00:40.011Z,-1.60
2019-02-12T23:05:26.077Z,-1.60
2019-02-12T23:10:12.127Z,-1.80
2019-02-12T23:14:58.480Z,-1.90
2019-02-12T23:19:44.524Z,-2.10
2019-02-12T23:24:30.444Z,-2.10
2019-02-12T23:29:16.679Z,-2.10
2019-02-12T23:34:02.614Z,-1.90
2019-02-12T23:38:48.372Z,-1.60
2019-02-12T23:43:34.233Z,-1.40
2019-02-12T23:48:20.038Z,-1.50
2019-02-12T23:53:05.983Z,-1.60
2019-02-12T23:57:51.857Z,-1.70
